createdAt,value
2022-11-20T00:02:40.039Z,98130.53
2022-11-20T00:05:42.104Z,98133.59
2022-11-20T00:08:44.453Z,98131.72
2022-11-20T00:11:46.478Z,98130.72
2022-11-20T00:14:48.686Z,98134.53
2022-11-20T00:17:50.828Z,98135.50
2022-11-20T00:20:52.884Z,98131.22
2022-11-20T00:23:56.265Z,98139.41
2022-11-20T00:26:58.278Z,98132.81
2022-11-20T00:30:00.340Z,98129.31
2022-11-20T00:33:02.358Z,98126.25
2022-11-20T00:36:10.099Z,98119.56
2022-11-20T00:39:12.163Z,98117.06
2022-11-20T00:42:14.285Z,98113.00
2022-11-20T00:45:16.440Z,98102.09
2022-11-20T00:48:18.477Z,98100.28
2022-11-20T00:51:24.032Z,98087.47
2022-11-20T00:54:26.081Z,98093.47
2022-11-20T00:57:28.099Z,98084.25
2022-11-20T01:00:30.154Z,98078.16
2022-11-20T01:03:40.520Z,98078.59
2022-11-20T01:06:42.599Z,98074.63
2022-11-20T01:09:44.665Z,98065.63
2022-11-20T01:13:06.665Z,98068.97
2022-11-20T01:16:15.499Z,98057.09
2022-11-20T01:19:23.216Z,98055.31
2022-11-20T01:22:25.313Z,98057.09
2022-11-20T01:25:27.358Z,98041.97
2022-11-20T01:28:30.020Z,98044.38
2022-11-20T01:31:37.371Z,98039.13
2022-11-20T01:34:39.410Z,98028.88
2022-11-20T01:37:41.436Z,98019.03
2022-11-20T01:40:43.668Z,98018.94
2022-11-20T01:43:45.692Z,98010.75
2022-11-20T01:47:02.768Z,98012.13
2022-11-20T01:50:29.867Z,98010.56
2022-11-20T01:53:34.325Z,98006.31
2022-11-20T01:56:39.439Z,97985.81
2022-11-20T01:59:46.280Z,97985.56
2022-11-20T02:03:14.489Z,97975.97
2022-11-20T02:06:29.079Z,97969.31
2022-11-20T02:09:31.123Z,97973.00
2022-11-20T02:12:51.886Z,97962.38
2022-11-20T02:15:53.992Z,97966.53
2022-11-20T02:18:58.569Z,97957.84
2022-11-20T02:22:08.626Z,97956.06
2022-11-20T02:25:10.738Z,97942.00
2022-11-20T02:28:14.073Z,97943.13
2022-11-20T02:31:16.327Z,97934.53
2022-11-20T02:34:18.381Z,97930.59
2022-11-20T02:37:20.890Z,97921.88
2022-11-20T02:40:23.235Z,97910.56
2022-11-20T02:43:25.410Z,97908.31
2022-11-20T02:46:27.484Z,97890.50
2022-11-20T02:49:29.581Z,97876.31
2022-11-20T02:52:31.799Z,97880.56
2022-11-20T02:55:34.025Z,97876.72
2022-11-20T02:58:36.122Z,97863.56
2022-11-20T03:01:38.285Z,97859.34
2022-11-20T03:04:40.379Z,97852.66
2022-11-20T03:07:42.573Z,97850.31
2022-11-20T03:10:44.745Z,97837.66
2022-11-20T03:13:46.907Z,97829.75
2022-11-20T03:16:48.938Z,97825.81
2022-11-20T03:19:51.109Z,97819.22
2022-11-20T03:22:55.182Z,97802.56
2022-11-20T03:25:57.281Z,97806.31
2022-11-20T03:29:01.932Z,97816.03
2022-11-20T03:32:04.090Z,97817.94
2022-11-20T03:35:06.991Z,97814.78
2022-11-20T03:38:09.190Z,97815.56
2022-11-20T03:41:14.443Z,97812.28
2022-11-20T03:44:16.629Z,97807.03
2022-11-20T03:47:18.739Z,97797.47
2022-11-20T03:50:20.949Z,97792.16
2022-11-20T03:53:23.016Z,97797.19
2022-11-20T03:56:30.967Z,97792.88
2022-11-20T03:59:33.047Z,97797.19
2022-11-20T04:02:35.228Z,97798.63
2022-11-20T04:05:37.307Z,97799.53
2022-11-20T04:08:39.806Z,97807.28
2022-11-20T04:11:42.142Z,97799.13
2022-11-20T04:14:49.234Z,97796.81
2022-11-20T04:17:51.410Z,97795.16
2022-11-20T04:20:53.586Z,97791.88
2022-11-20T04:23:56.287Z,97793.19
2022-11-20T04:26:58.420Z,97792.16
2022-11-20T04:30:00.521Z,97789.84
2022-11-20T04:33:02.619Z,97778.81
2022-11-20T04:36:12.820Z,97778.84
2022-11-20T04:39:16.307Z,97777.66
2022-11-20T04:42:30.013Z,97776.91
2022-11-20T04:45:32.093Z,97773.13
2022-11-20T04:48:34.153Z,97777.75
2022-11-20T04:51:36.205Z,97766.16
2022-11-20T04:54:38.271Z,97766.09
2022-11-20T04:57:40.303Z,97759.22
2022-11-20T05:00:42.349Z,97756.31
2022-11-20T05:03:44.789Z,97763.72
2022-11-20T05:06:46.891Z,97765.44
2022-11-20T05:09:48.920Z,97749.38
2022-11-20T05:12:51.001Z,97751.66
2022-11-20T05:15:53.086Z,97749.31
2022-11-20T05:18:55.449Z,97752.50
2022-11-20T05:21:57.692Z,97748.59
2022-11-20T05:24:59.750Z,97756.97
2022-11-20T05:28:01.851Z,97751.88
2022-11-20T05:31:23.363Z,97745.03
2022-11-20T05:34:28.546Z,97737.97
2022-11-20T05:37:30.602Z,97727.31
2022-11-20T05:40:32.651Z,97731.25
2022-11-20T05:43:35.895Z,97723.75
2022-11-20T05:46:37.979Z,97731.69
2022-11-20T05:49:40.037Z,97727.75
2022-11-20T05:52:42.188Z,97723.66
2022-11-20T05:55:44.224Z,97724.03
2022-11-20T05:58:47.552Z,97720.66
2022-11-20T06:01:49.614Z,97720.88
2022-11-20T06:04:51.672Z,97718.84
2022-11-20T06:07:53.720Z,97697.94
2022-11-20T06:10:55.835Z,97695.63
2022-11-20T06:13:57.912Z,97699.75
2022-11-20T06:16:59.940Z,97687.41
2022-11-20T06:20:02.157Z,97686.34
2022-11-20T06:23:09.189Z,97675.44
2022-11-20T06:26:14.559Z,97677.78
2022-11-20T06:29:16.698Z,97675.44
2022-11-20T06:32:18.715Z,97671.84
2022-11-20T06:35:20.799Z,97669.97
2022-11-20T06:38:22.817Z,97669.31
2022-11-20T06:41:25.075Z,97666.38
2022-11-20T06:44:27.259Z,97669.75
2022-11-20T06:47:29.346Z,97663.91
2022-11-20T06:50:31.467Z,97657.06
2022-11-20T06:53:33.814Z,97664.69
2022-11-20T06:56:35.853Z,97671.53
2022-11-20T06:59:37.920Z,97665.50
2022-11-20T07:02:39.965Z,97675.66
2022-11-20T07:05:42.124Z,97683.38
2022-11-20T07:08:44.178Z,97676.78
2022-11-20T07:11:46.210Z,97679.50
2022-11-20T07:14:48.252Z,97680.78
2022-11-20T07:17:50.372Z,97690.88
2022-11-20T07:20:52.431Z,97689.75
2022-11-20T07:23:54.492Z,97692.56
2022-11-20T07:26:56.583Z,97695.06
2022-11-20T07:29:58.722Z,97692.72
2022-11-20T07:33:00.897Z,97692.50
2022-11-20T07:36:03.140Z,97692.06
2022-11-20T07:39:05.238Z,97681.25
2022-11-20T07:42:07.923Z,97688.16
2022-11-20T07:45:12.886Z,97687.53
2022-11-20T07:48:15.013Z,97695.94
2022-11-20T07:51:17.138Z,97688.25
2022-11-20T07:54:19.176Z,97691.09
2022-11-20T07:57:25.663Z,97689.22
2022-11-20T08:00:30.398Z,97686.84
2022-11-20T08:03:32.523Z,97683.41
2022-11-20T08:06:34.570Z,97678.63
2022-11-20T08:09:36.637Z,97674.25
2022-11-20T08:13:06.760Z,97677.91
2022-11-20T08:16:08.852Z,97676.41
2022-11-20T08:19:11.136Z,97679.56
2022-11-20T08:22:13.240Z,97677.94
2022-11-20T08:25:15.358Z,97679.03
2022-11-20T08:28:21.450Z,97683.28
2022-11-20T08:31:27.874Z,97682.72
2022-11-20T08:34:29.906Z,97679.47
2022-11-20T08:37:32.076Z,97674.44
2022-11-20T08:40:34.393Z,97681.88
2022-11-20T08:43:36.439Z,97691.78
2022-11-20T08:46:42.023Z,97685.13
2022-11-20T08:49:44.104Z,97685.75
2022-11-20T08:52:46.394Z,97682.06
2022-11-20T08:55:48.960Z,97666.09
2022-11-20T08:59:20.142Z,97664.81
2022-11-20T09:02:17.070Z,97674.22
2022-11-20T09:05:19.126Z,97667.00
2022-11-20T09:08:21.172Z,97665.28
2022-11-20T09:11:23.459Z,97663.09
2022-11-20T09:14:30.038Z,97665.28
2022-11-20T09:17:32.085Z,97675.91
2022-11-20T09:20:34.164Z,97678.22
2022-11-20T09:23:36.836Z,97678.63
2022-11-20T09:26:38.920Z,97689.97
2022-11-20T09:29:40.937Z,97689.16
2022-11-20T09:32:43.822Z,97696.03
2022-11-20T09:35:45.989Z,97703.81
2022-11-20T09:38:48.324Z,97710.56
2022-11-20T09:42:25.788Z,97704.94
2022-11-20T09:45:34.928Z,97699.28
2022-11-20T09:49:12.345Z,97697.69
2022-11-20T09:52:48.427Z,97694.53
2022-11-20T09:55:50.637Z,97690.22
2022-11-20T09:58:54.489Z,97681.03
2022-11-20T10:01:56.585Z,97682.56
2022-11-20T10:05:24.237Z,97671.66
2022-11-20T10:08:31.581Z,97675.28
2022-11-20T10:11:56.478Z,97670.94
2022-11-20T10:15:41.439Z,97666.16
2022-11-20T10:19:18.416Z,97669.25
2022-11-20T10:23:01.689Z,97667.38
2022-11-20T10:26:19.219Z,97672.94
2022-11-20T10:29:25.684Z,97690.56
2022-11-20T10:32:35.985Z,97684.16
2022-11-20T10:35:45.867Z,97662.22
2022-11-20T10:38:51.263Z,97660.59
2022-11-20T10:41:54.329Z,97661.53
2022-11-20T10:45:14.077Z,97660.47
2022-11-20T10:48:24.515Z,97649.53
2022-11-20T10:51:39.026Z,97644.22
2022-11-20T10:54:53.186Z,97658.44
2022-11-20T10:59:11.789Z,97654.75
2022-11-20T11:02:42.527Z,97652.50
2022-11-20T11:05:56.325Z,97653.63
2022-11-20T11:09:00.949Z,97649.97
2022-11-20T11:12:06.988Z,97653.28
2022-11-20T11:15:30.015Z,97666.03
2022-11-20T11:18:34.190Z,97668.97
2022-11-20T11:21:37.741Z,97676.47
2022-11-20T11:24:42.714Z,97674.66
2022-11-20T11:27:49.552Z,97684.09
2022-11-20T11:30:51.695Z,97674.13
2022-11-20T11:34:04.238Z,97668.13
2022-11-20T11:37:06.801Z,97672.31
2022-11-20T11:40:26.399Z,97676.22
2022-11-20T11:43:50.737Z,97663.41
2022-11-20T11:46:56.554Z,97671.19
2022-11-20T11:50:28.455Z,97665.16
2022-11-20T11:53:30.572Z,97674.94
2022-11-20T11:56:33.124Z,97667.50
2022-11-20T12:00:05.895Z,97667.78
2022-11-20T12:03:19.600Z,97664.84
2022-11-20T12:06:21.641Z,97656.09
2022-11-20T12:09:25.936Z,97661.28
2022-11-20T12:12:33.637Z,97653.47
2022-11-20T12:15:35.783Z,97627.72
2022-11-20T12:18:37.827Z,97653.75
2022-11-20T12:22:04.133Z,97618.34
2022-11-20T12:25:28.982Z,97623.94
2022-11-20T12:28:55.485Z,97622.66
2022-11-20T12:32:13.835Z,97643.63
2022-11-20T12:35:30.291Z,97647.69
2022-11-20T12:38:34.993Z,97645.53
2022-11-20T12:42:26.959Z,97636.44
2022-11-20T12:46:17.917Z,97645.22
2022-11-20T12:49:47.510Z,97639.81
2022-11-20T12:52:57.608Z,97636.13
2022-11-20T12:56:02.431Z,97634.75
2022-11-20T12:59:46.355Z,97639.38
2022-11-20T13:03:10.135Z,97642.22
2022-11-20T13:06:16.562Z,97644.50
2022-11-20T13:09:22.822Z,97627.38
2022-11-20T13:12:47.728Z,97637.97
2022-11-20T13:16:26.748Z,97629.09
2022-11-20T13:19:29.635Z,97622.88
2022-11-20T13:22:49.191Z,97623.38
2022-11-20T13:25:51.287Z,97634.84
2022-11-20T13:29:20.236Z,97638.19
2022-11-20T13:32:22.279Z,97635.34
2022-11-20T13:35:37.397Z,97645.16
2022-11-20T13:38:50.533Z,97646.53
2022-11-20T13:42:01.335Z,97629.53
2022-11-20T13:45:09.183Z,97644.66
2022-11-20T13:48:25.719Z,97639.41
2022-11-20T13:51:52.430Z,97632.78
2022-11-20T13:55:07.247Z,97644.56
2022-11-20T13:58:46.477Z,97640.91
2022-11-20T14:01:48.691Z,97647.75
2022-11-20T14:04:52.663Z,97644.41
2022-11-20T14:07:54.757Z,97644.03
2022-11-20T14:11:18.485Z,97653.53
2022-11-20T14:14:23.610Z,97650.91
2022-11-20T14:17:30.682Z,97632.00
2022-11-20T14:20:32.800Z,97638.31
2022-11-20T14:23:34.912Z,97638.69
2022-11-20T14:26:37.370Z,97632.28
2022-11-20T14:29:39.879Z,97642.34
2022-11-20T14:32:42.432Z,97646.53
2022-11-20T14:35:49.882Z,97655.09
2022-11-20T14:38:52.868Z,97651.44
2022-11-20T14:41:55.152Z,97651.03
2022-11-20T14:44:59.466Z,97653.69
2022-11-20T14:48:01.646Z,97655.41
2022-11-20T14:51:03.699Z,97653.13
2022-11-20T14:54:16.317Z,97653.66
2022-11-20T14:57:30.079Z,97651.78
2022-11-20T15:00:33.256Z,97650.53
2022-11-20T15:03:37.240Z,97647.84
2022-11-20T15:06:50.734Z,97646.69
2022-11-20T15:10:13.656Z,97650.56
2022-11-20T15:13:37.914Z,97655.31
2022-11-20T15:16:39.940Z,97658.00
2022-11-20T15:19:42.022Z,97659.00
2022-11-20T15:22:44.314Z,97659.94
2022-11-20T15:25:46.672Z,97661.00
2022-11-20T15:28:51.172Z,97653.50
2022-11-20T15:31:55.262Z,97668.28
2022-11-20T15:34:57.328Z,97660.91
2022-11-20T15:37:59.339Z,97664.91
2022-11-20T15:41:01.397Z,97677.34
2022-11-20T15:44:04.519Z,97669.22
2022-11-20T15:47:06.560Z,97678.97
2022-11-20T15:50:12.921Z,97673.69
2022-11-20T15:53:15.022Z,97689.19
2022-11-20T15:56:17.057Z,97687.97
2022-11-20T15:59:19.184Z,97682.53
2022-11-20T16:02:21.236Z,97685.19
2022-11-20T16:05:24.244Z,97686.38
2022-11-20T16:08:26.292Z,97682.81
2022-11-20T16:11:28.356Z,97682.97
2022-11-20T16:14:49.132Z,97682.25
2022-11-20T16:17:51.173Z,97688.38
2022-11-20T16:20:54.336Z,97699.00
2022-11-20T16:23:56.431Z,97694.09
2022-11-20T16:26:58.464Z,97693.31
2022-11-20T16:30:00.553Z,97690.09
2022-11-20T16:33:03.434Z,97684.25
2022-11-20T16:36:13.705Z,97671.78
2022-11-20T16:39:19.120Z,97670.06
2022-11-20T16:42:25.294Z,97678.06
2022-11-20T16:45:32.660Z,97677.19
2022-11-20T16:48:35.914Z,97675.66
2022-11-20T16:51:37.991Z,97674.19
2022-11-20T16:54:40.042Z,97679.69
2022-11-20T16:57:42.726Z,97675.34
2022-11-20T17:00:51.242Z,97674.44
2022-11-20T17:04:01.893Z,97673.28
2022-11-20T17:07:08.017Z,97684.25
2022-11-20T17:10:10.348Z,97687.22
2022-11-20T17:13:12.433Z,97683.91
2022-11-20T17:16:22.679Z,97688.16
2022-11-20T17:19:24.716Z,97694.22
2022-11-20T17:22:27.807Z,97694.72
2022-11-20T17:25:33.357Z,97695.59
2022-11-20T17:28:36.070Z,97692.97
2022-11-20T17:31:38.677Z,97690.06
2022-11-20T17:34:40.798Z,97686.59
2022-11-20T17:37:42.864Z,97692.91
2022-11-20T17:40:45.771Z,97692.22
2022-11-20T17:43:48.464Z,97689.69
2022-11-20T17:46:50.493Z,97697.38
2022-11-20T17:49:53.630Z,97707.78
2022-11-20T17:52:55.718Z,97699.09
2022-11-20T17:56:17.072Z,97710.66
2022-11-20T17:59:19.416Z,97717.66
2022-11-20T18:02:21.555Z,97721.75
2022-11-20T18:05:23.788Z,97719.91
2022-11-20T18:08:28.086Z,97720.34
2022-11-20T18:11:33.848Z,97726.41
2022-11-20T18:14:38.609Z,97736.59
2022-11-20T18:17:40.633Z,97730.84
2022-11-20T18:20:42.700Z,97724.22
2022-11-20T18:23:44.734Z,97731.22
2022-11-20T18:26:46.840Z,97733.41
2022-11-20T18:29:51.956Z,97729.53
2022-11-20T18:32:54.481Z,97736.81
2022-11-20T18:35:56.513Z,97739.50
2022-11-20T18:39:00.046Z,97744.78
2022-11-20T18:42:21.010Z,97749.06
2022-11-20T18:45:23.092Z,97752.84
2022-11-20T18:48:25.119Z,97754.13
2022-11-20T18:51:27.165Z,97756.16
2022-11-20T18:54:29.237Z,97753.28
2022-11-20T18:57:31.447Z,97757.16
2022-11-20T19:00:33.548Z,97750.66
2022-11-20T19:03:35.642Z,97751.44
2022-11-20T19:06:38.245Z,97740.13
2022-11-20T19:09:41.783Z,97750.59
2022-11-20T19:12:43.879Z,97754.31
2022-11-20T19:15:46.052Z,97754.84
2022-11-20T19:18:48.469Z,97750.22
2022-11-20T19:21:52.059Z,97743.81
2022-11-20T19:24:54.137Z,97746.44
2022-11-20T19:27:56.187Z,97755.41
2022-11-20T19:31:11.065Z,97752.25
2022-11-20T19:34:13.256Z,97742.16
2022-11-20T19:37:15.296Z,97739.47
2022-11-20T19:40:17.353Z,97736.09
2022-11-20T19:43:19.429Z,97736.91
2022-11-20T19:46:21.673Z,97743.06
2022-11-20T19:49:23.885Z,97739.22
2022-11-20T19:52:26.044Z,97736.22
2022-11-20T19:55:28.133Z,97745.53
2022-11-20T19:58:30.402Z,97753.63
2022-11-20T20:01:32.720Z,97756.72
2022-11-20T20:04:34.917Z,97756.97
2022-11-20T20:07:40.091Z,97760.47
2022-11-20T20:10:42.245Z,97763.16
2022-11-20T20:13:44.750Z,97760.06
2022-11-20T20:16:46.919Z,97754.09
2022-11-20T20:19:48.962Z,97761.63
2022-11-20T20:22:51.069Z,97766.13
2022-11-20T20:25:53.146Z,97769.63
2022-11-20T20:28:55.363Z,97769.28
2022-11-20T20:31:57.410Z,97774.09
2022-11-20T20:34:59.544Z,97767.44
2022-11-20T20:38:01.650Z,97770.16
2022-11-20T20:41:03.826Z,97774.53
2022-11-20T20:44:24.444Z,97777.09
2022-11-20T20:47:37.630Z,97782.78
2022-11-20T20:50:39.900Z,97786.03
2022-11-20T20:53:41.939Z,97787.16
2022-11-20T20:56:43.977Z,97786.25
2022-11-20T20:59:46.005Z,97776.94
2022-11-20T21:02:48.041Z,97769.56
2022-11-20T21:05:56.284Z,97774.41
2022-11-20T21:08:58.760Z,97768.34
2022-11-20T21:12:00.817Z,97771.09
2022-11-20T21:15:02.883Z,97771.84
2022-11-20T21:18:05.108Z,97781.59
2022-11-20T21:21:31.429Z,97784.94
2022-11-20T21:24:35.572Z,97768.63
2022-11-20T21:27:37.704Z,97766.25
2022-11-20T21:30:39.746Z,97770.44
2022-11-20T21:33:46.444Z,97756.13
2022-11-20T21:36:48.559Z,97765.34
2022-11-20T21:39:52.097Z,97771.47
2022-11-20T21:42:54.289Z,97770.66
2022-11-20T21:46:07.995Z,97772.25
2022-11-20T21:49:10.353Z,97767.53
2022-11-20T21:52:12.894Z,97771.34
2022-11-20T21:55:14.965Z,97779.31
2022-11-20T21:58:17.023Z,97778.88
2022-11-20T22:01:25.608Z,97774.63
2022-11-20T22:04:27.753Z,97776.03
2022-11-20T22:07:29.853Z,97774.16
2022-11-20T22:10:32.067Z,97772.50
2022-11-20T22:13:52.938Z,97765.88
2022-11-20T22:16:55.113Z,97767.53
2022-11-20T22:19:57.126Z,97770.91
2022-11-20T22:22:59.316Z,97754.44
2022-11-20T22:26:14.615Z,97763.97
2022-11-20T22:29:21.129Z,97765.97
2022-11-20T22:32:23.256Z,97771.00
2022-11-20T22:35:25.474Z,97774.88
2022-11-20T22:38:29.612Z,97767.03
2022-11-20T22:41:32.185Z,97756.03
2022-11-20T22:44:34.234Z,97752.81
2022-11-20T22:47:36.340Z,97752.50
2022-11-20T22:50:38.377Z,97751.72
2022-11-20T22:53:41.449Z,97758.72
2022-11-20T22:56:43.524Z,97753.75
2022-11-20T22:59:45.585Z,97770.78
2022-11-20T23:02:47.726Z,97768.91
2022-11-20T23:05:49.973Z,97765.97
2022-11-20T23:08:52.284Z,97776.25
2022-11-20T23:11:54.487Z,97781.59
2022-11-20T23:14:56.581Z,97776.00
2022-11-20T23:17:58.706Z,97774.69
2022-11-20T23:21:12.541Z,97784.97
2022-11-20T23:24:14.655Z,97781.56
2022-11-20T23:27:19.634Z,97770.03
2022-11-20T23:30:22.079Z,97755.91
2022-11-20T23:33:24.193Z,97753.63
2022-11-20T23:36:26.598Z,97755.81
2022-11-20T23:39:28.738Z,97747.78
2022-11-20T23:42:30.846Z,97758.38
2022-11-20T23:45:38.109Z,97757.16
2022-11-20T23:48:40.243Z,97760.72
2022-11-20T23:51:42.341Z,97750.31
2022-11-20T23:54:44.550Z,97742.25
2022-11-20T23:57:46.635Z,97734.75
